createdAt,value
2018-06-02T00:02:11.530Z,49.60
2018-06-02T00:04:39.928Z,49.70
2018-06-02T00:07:07.422Z,49.50
2018-06-02T00:09:35.667Z,49.60
2018-06-02T00:12:03.144Z,49.60
2018-06-02T00:14:30.637Z,49.70
2018-06-02T00:16:58.121Z,49.80
2018-06-02T00:19:26.373Z,49.70
2018-06-02T00:21:53.849Z,49.60
2018-06-02T00:24:21.334Z,49.70
2018-06-02T00:26:48.805Z,49.70
2018-06-02T00:29:16.340Z,49.70
2018-06-02T00:31:43.818Z,49.80
2018-06-02T00:34:11.396Z,49.70
2018-06-02T00:36:39.065Z,49.80
2018-06-02T00:39:06.624Z,49.80
2018-06-02T00:41:34.199Z,49.80
2018-06-02T00:44:01.788Z,49.80
2018-06-02T00:46:29.344Z,49.80
2018-06-02T00:48:56.833Z,49.90
2018-06-02T00:51:24.308Z,49.80
2018-06-02T00:53:51.791Z,50.50
2018-06-02T00:56:19.345Z,49.80
2018-06-02T00:58:46.848Z,49.80
2018-06-02T01:01:15.100Z,49.80
2018-06-02T01:03:42.672Z,49.80
2018-06-02T01:06:10.154Z,49.80
2018-06-02T01:08:37.692Z,49.90
2018-06-02T01:11:05.178Z,49.80
2018-06-02T01:13:32.657Z,49.80
2018-06-02T01:16:00.142Z,49.80
2018-06-02T01:18:27.623Z,49.80
2018-06-02T01:20:55.223Z,49.90
2018-06-02T01:23:22.637Z,50.50
2018-06-02T01:25:50.125Z,49.90
2018-06-02T01:28:17.643Z,50.00
2018-06-02T01:30:45.125Z,50.00
2018-06-02T01:33:12.709Z,50.00
2018-06-02T01:35:40.724Z,49.90
2018-06-02T01:38:08.271Z,50.60
2018-06-02T01:40:35.745Z,50.00
2018-06-02T01:43:03.240Z,50.00
2018-06-02T01:45:31.501Z,49.70
2018-06-02T01:47:58.972Z,49.90
2018-06-02T01:50:26.461Z,50.00
2018-06-02T01:52:53.944Z,50.00
2018-06-02T01:55:21.432Z,50.00
2018-06-02T01:57:49.764Z,50.00
2018-06-02T02:00:17.250Z,49.90
2018-06-02T02:02:44.740Z,50.00
2018-06-02T02:05:12.230Z,50.00
2018-06-02T02:07:40.476Z,50.00
2018-06-02T02:10:07.949Z,49.90
2018-06-02T02:12:35.435Z,50.00
2018-06-02T02:15:02.978Z,49.90
2018-06-02T02:17:30.481Z,49.90
2018-06-02T02:19:57.958Z,49.90
2018-06-02T02:22:25.432Z,50.00
2018-06-02T02:24:53.687Z,50.00
2018-06-02T02:27:21.182Z,50.00
2018-06-02T02:29:48.722Z,49.90
2018-06-02T02:32:16.202Z,50.00
2018-06-02T02:34:43.696Z,50.00
2018-06-02T02:37:11.248Z,50.00
2018-06-02T02:39:38.736Z,50.10
2018-06-02T02:42:06.265Z,50.10
2018-06-02T02:44:33.838Z,50.10
2018-06-02T02:47:01.317Z,50.20
2018-06-02T02:49:28.788Z,50.20
2018-06-02T02:51:56.350Z,50.20
2018-06-02T02:54:23.834Z,50.20
2018-06-02T02:56:51.316Z,50.20
2018-06-02T02:59:18.798Z,50.20
2018-06-02T03:01:46.297Z,50.20
2018-06-02T03:04:13.789Z,50.30
2018-06-02T03:06:41.278Z,50.30
2018-06-02T03:09:08.855Z,50.20
2018-06-02T03:11:36.337Z,50.30
2018-06-02T03:14:03.825Z,50.30
2018-06-02T03:16:31.330Z,50.40
2018-06-02T03:18:58.810Z,50.30
2018-06-02T03:21:26.295Z,50.30
2018-06-02T03:23:53.789Z,50.30
2018-06-02T03:26:21.266Z,50.40
2018-06-02T03:28:48.817Z,50.40
2018-06-02T03:31:16.321Z,50.40
2018-06-02T03:33:43.801Z,50.30
2018-06-02T03:36:12.063Z,50.50
2018-06-02T03:38:39.589Z,50.40
2018-06-02T03:41:07.080Z,50.50
2018-06-02T03:43:34.561Z,50.50
2018-06-02T03:46:02.048Z,50.60
2018-06-02T03:48:29.546Z,50.60
2018-06-02T03:50:57.878Z,50.70
2018-06-02T03:53:25.365Z,50.70
2018-06-02T03:55:52.872Z,50.70
2018-06-02T03:58:21.137Z,50.80
2018-06-02T04:00:48.616Z,50.80
2018-06-02T04:03:16.111Z,50.80
2018-06-02T04:05:44.447Z,50.90
2018-06-02T04:08:12.024Z,50.80
2018-06-02T04:10:39.497Z,50.80
2018-06-02T04:13:07.001Z,50.90
2018-06-02T04:15:35.341Z,51.00
2018-06-02T04:18:02.918Z,50.90
2018-06-02T04:20:30.413Z,50.90
2018-06-02T04:22:57.896Z,50.90
2018-06-02T04:25:25.383Z,50.90
2018-06-02T04:27:53.621Z,50.90
2018-06-02T04:30:26.924Z,50.80
2018-06-02T04:32:54.400Z,50.80
2018-06-02T04:35:21.896Z,50.90
2018-06-02T04:37:49.381Z,50.80
2018-06-02T04:40:17.713Z,51.10
2018-06-02T04:42:45.280Z,50.90
2018-06-02T04:45:12.772Z,50.90
2018-06-02T04:47:40.282Z,50.90
2018-06-02T04:50:07.765Z,50.90
2018-06-02T04:52:36.034Z,50.90
2018-06-02T04:55:03.575Z,51.00
2018-06-02T04:57:31.063Z,51.00
2018-06-02T04:59:58.615Z,51.00
2018-06-02T05:02:26.188Z,51.00
2018-06-02T05:04:53.681Z,51.00
2018-06-02T05:07:21.166Z,51.10
2018-06-02T05:09:48.664Z,51.10
2018-06-02T05:12:16.934Z,51.20
2018-06-02T05:14:44.441Z,51.20
2018-06-02T05:17:11.979Z,51.20
2018-06-02T05:19:39.633Z,51.20
2018-06-02T05:22:07.117Z,51.20
2018-06-02T05:24:34.654Z,51.30
2018-06-02T05:27:02.217Z,51.30
2018-06-02T05:29:29.815Z,51.30
2018-06-02T05:31:57.301Z,51.30
2018-06-02T05:34:24.815Z,51.40
2018-06-02T05:36:52.300Z,51.30
2018-06-02T05:39:19.883Z,51.30
2018-06-02T05:41:47.396Z,51.30
2018-06-02T05:44:15.681Z,51.30
2018-06-02T05:46:43.222Z,51.20
2018-06-02T05:49:10.799Z,51.30
2018-06-02T05:51:38.307Z,51.30
2018-06-02T05:54:06.642Z,51.20
2018-06-02T05:56:34.208Z,51.20
2018-06-02T05:59:01.893Z,51.20
2018-06-02T06:01:29.395Z,51.20
2018-06-02T06:03:56.870Z,51.80
2018-06-02T06:06:24.405Z,51.20
2018-06-02T06:08:51.893Z,51.10
2018-06-02T06:11:19.439Z,51.30
2018-06-02T06:13:47.095Z,51.20
2018-06-02T06:16:14.581Z,51.20
2018-06-02T06:18:42.092Z,51.20
2018-06-02T06:21:09.585Z,51.20
2018-06-02T06:23:37.929Z,51.20
2018-06-02T06:26:05.416Z,51.20
2018-06-02T06:28:32.960Z,51.10
2018-06-02T06:31:00.442Z,51.10
2018-06-02T06:33:27.945Z,51.10
2018-06-02T06:35:56.288Z,51.20
2018-06-02T06:38:23.911Z,51.10
2018-06-02T06:40:51.568Z,51.10
2018-06-02T06:43:19.153Z,51.10
2018-06-02T06:45:46.690Z,51.20
2018-06-02T06:48:14.175Z,51.20
2018-06-02T06:50:41.715Z,51.10
2018-06-02T06:53:09.955Z,51.10
2018-06-02T06:55:37.485Z,51.10
2018-06-02T06:58:04.984Z,51.00
2018-06-02T07:00:32.537Z,51.10
2018-06-02T07:03:00.100Z,51.00
2018-06-02T07:05:27.884Z,51.00
2018-06-02T07:07:55.380Z,51.00
2018-06-02T07:10:23.001Z,51.00
2018-06-02T07:12:51.239Z,51.00
2018-06-02T07:15:18.788Z,51.00
2018-06-02T07:17:46.458Z,51.00
2018-06-02T07:20:14.065Z,51.00
2018-06-02T07:22:41.651Z,51.00
2018-06-02T07:25:09.298Z,51.10
2018-06-02T07:27:37.647Z,51.10
2018-06-02T07:30:05.141Z,51.00
2018-06-02T07:32:32.642Z,51.10
2018-06-02T07:35:00.140Z,51.10
2018-06-02T07:37:28.471Z,51.10
2018-06-02T07:39:56.130Z,51.10
2018-06-02T07:42:23.682Z,51.10
2018-06-02T07:44:51.182Z,51.10
2018-06-02T07:47:18.788Z,51.20
2018-06-02T07:49:46.379Z,51.10
2018-06-02T07:52:13.926Z,51.20
2018-06-02T07:54:41.482Z,51.20
2018-06-02T07:57:09.509Z,51.20
2018-06-02T07:59:36.984Z,51.20
2018-06-02T08:02:05.334Z,51.20
2018-06-02T08:04:32.895Z,51.20
2018-06-02T08:07:00.611Z,51.20
2018-06-02T08:09:28.082Z,51.20
2018-06-02T08:11:55.573Z,51.20
2018-06-02T08:14:23.112Z,51.20
2018-06-02T08:16:50.635Z,51.20
2018-06-02T08:19:18.170Z,51.20
2018-06-02T08:21:46.548Z,51.70
2018-06-02T08:24:14.136Z,51.20
2018-06-02T08:26:41.688Z,51.30
2018-06-02T08:29:09.374Z,51.30
2018-06-02T08:31:36.958Z,51.30
2018-06-02T08:34:04.475Z,51.20
2018-06-02T08:36:31.960Z,51.40
2018-06-02T08:38:59.533Z,51.90
2018-06-02T08:41:26.997Z,52.50
2018-06-02T08:43:54.486Z,53.20
2018-06-02T08:46:22.074Z,53.60
2018-06-02T08:48:49.548Z,53.90
2018-06-02T08:51:17.800Z,54.40
2018-06-02T08:53:45.274Z,54.40
2018-06-02T08:56:12.851Z,54.90
2018-06-02T08:58:40.336Z,55.10
2018-06-02T09:01:07.850Z,54.80
2018-06-02T09:03:36.164Z,55.60
2018-06-02T09:06:03.645Z,55.60
2018-06-02T09:08:31.209Z,55.40
2018-06-02T09:10:58.688Z,55.60
2018-06-02T09:13:26.205Z,56.60
2018-06-02T09:15:53.718Z,56.00
2018-06-02T09:18:21.209Z,56.20
2018-06-02T09:20:48.740Z,56.60
2018-06-02T09:23:16.240Z,56.00
2018-06-02T09:25:43.826Z,56.10
2018-06-02T09:28:11.396Z,56.50
2018-06-02T09:30:38.990Z,56.00
2018-06-02T09:33:06.496Z,56.10
2018-06-02T09:35:34.897Z,56.30
2018-06-02T09:38:02.393Z,56.20
2018-06-02T09:40:30.044Z,56.00
2018-06-02T09:42:57.581Z,55.80
2018-06-02T09:45:25.837Z,55.50
2018-06-02T09:47:53.702Z,55.40
2018-06-02T09:50:21.242Z,55.60
2018-06-02T09:52:48.937Z,55.50
2018-06-02T09:55:17.453Z,55.50
2018-06-02T09:57:45.055Z,55.20
2018-06-02T10:00:12.795Z,55.00
2018-06-02T10:02:40.501Z,55.00
2018-06-02T10:05:08.023Z,55.20
2018-06-02T10:07:35.605Z,55.20
2018-06-02T10:10:03.169Z,55.10
2018-06-02T10:12:30.789Z,55.30
2018-06-02T10:14:58.320Z,55.40
2018-06-02T10:17:25.943Z,55.40
2018-06-02T10:19:54.297Z,55.30
2018-06-02T10:22:21.857Z,55.20
2018-06-02T10:24:49.353Z,55.70
2018-06-02T10:27:16.956Z,55.10
2018-06-02T10:29:45.273Z,55.20
2018-06-02T10:32:12.790Z,55.10
2018-06-02T10:34:40.361Z,55.00
2018-06-02T10:37:10.136Z,55.00
2018-06-02T10:39:37.741Z,55.00
2018-06-02T10:42:05.242Z,54.90
2018-06-02T10:44:32.787Z,55.10
2018-06-02T10:47:01.292Z,54.90
2018-06-02T10:49:28.814Z,54.80
2018-06-02T10:51:56.393Z,54.70
2018-06-02T10:54:23.870Z,54.80
2018-06-02T10:56:51.416Z,54.70
2018-06-02T10:59:19.774Z,54.80
2018-06-02T11:01:47.498Z,54.80
2018-06-02T11:04:16.506Z,54.70
2018-06-02T11:06:44.123Z,54.70
2018-06-02T11:09:11.786Z,54.60
2018-06-02T11:11:39.323Z,54.70
2018-06-02T11:14:06.797Z,54.60
2018-06-02T11:16:34.300Z,54.50
2018-06-02T11:19:01.884Z,54.40
2018-06-02T11:21:29.429Z,54.20
2018-06-02T11:23:57.049Z,54.40
2018-06-02T11:26:24.760Z,54.60
2018-06-02T11:28:53.133Z,54.20
2018-06-02T11:31:21.387Z,54.90
2018-06-02T11:33:48.929Z,54.30
2018-06-02T11:36:16.490Z,54.30
2018-06-02T11:38:44.189Z,54.10
2018-06-02T11:41:11.868Z,54.10
2018-06-02T11:43:39.407Z,54.00
2018-06-02T11:46:07.660Z,54.00
2018-06-02T11:48:35.134Z,53.90
2018-06-02T11:51:03.556Z,54.30
2018-06-02T11:53:31.797Z,54.10
2018-06-02T11:55:59.288Z,54.00
2018-06-02T11:58:27.573Z,54.70
2018-06-02T12:00:55.104Z,54.00
2018-06-02T12:03:22.647Z,54.30
2018-06-02T12:05:50.960Z,54.50
2018-06-02T12:08:18.528Z,54.40
2018-06-02T12:10:46.091Z,54.30
2018-06-02T12:13:13.694Z,54.10
2018-06-02T12:15:41.227Z,54.00
2018-06-02T12:18:08.713Z,54.10
2018-06-02T12:20:36.228Z,54.00
2018-06-02T12:23:03.669Z,54.30
2018-06-02T12:25:31.152Z,54.40
2018-06-02T12:27:58.648Z,54.30
2018-06-02T12:30:27.069Z,54.60
2018-06-02T12:32:55.462Z,54.10
2018-06-02T12:35:23.706Z,54.20
2018-06-02T12:37:51.238Z,54.20
2018-06-02T12:40:18.822Z,54.20
2018-06-02T12:42:46.421Z,54.20
2018-06-02T12:45:13.914Z,54.20
2018-06-02T12:47:42.195Z,54.30
2018-06-02T12:50:09.643Z,54.30
2018-06-02T12:52:37.131Z,54.10
2018-06-02T12:55:04.626Z,54.20
2018-06-02T12:57:32.944Z,54.00
2018-06-02T13:00:00.520Z,54.00
2018-06-02T13:02:28.093Z,54.10
2018-06-02T13:04:55.589Z,54.10
2018-06-02T13:07:23.092Z,54.10
2018-06-02T13:09:50.687Z,54.20
2018-06-02T13:12:19.704Z,54.20
2018-06-02T13:14:47.293Z,54.20
2018-06-02T13:17:14.876Z,54.30
2018-06-02T13:19:42.379Z,54.20
2018-06-02T13:22:10.055Z,54.20
2018-06-02T13:24:37.556Z,54.20
2018-06-02T13:27:05.029Z,54.20
2018-06-02T13:29:32.514Z,54.00
2018-06-02T13:32:00.013Z,54.00
2018-06-02T13:34:27.534Z,54.00
2018-06-02T13:36:55.029Z,54.10
2018-06-02T13:39:22.512Z,54.00
2018-06-02T13:41:49.999Z,54.00
2018-06-02T13:44:17.525Z,54.00
2018-06-02T13:46:45.044Z,53.90
2018-06-02T13:49:12.546Z,54.00
2018-06-02T13:51:40.131Z,53.90
2018-06-02T13:54:08.376Z,53.80
2018-06-02T13:56:35.857Z,53.80
2018-06-02T13:59:03.396Z,53.90
2018-06-02T14:01:30.876Z,54.20
2018-06-02T14:03:58.391Z,53.80
2018-06-02T14:06:26.816Z,53.90
2018-06-02T14:08:54.385Z,54.00
2018-06-02T14:11:21.963Z,53.90
2018-06-02T14:13:49.545Z,53.90
2018-06-02T14:16:17.037Z,53.90
2018-06-02T14:18:44.775Z,53.90
2018-06-02T14:21:12.233Z,53.90
2018-06-02T14:23:39.717Z,54.40
2018-06-02T14:26:07.267Z,53.90
2018-06-02T14:28:35.505Z,53.90
2018-06-02T14:31:03.000Z,53.90
2018-06-02T14:33:30.546Z,53.90
2018-06-02T14:35:58.097Z,53.70
2018-06-02T14:38:25.590Z,53.70
2018-06-02T14:40:53.873Z,54.40
2018-06-02T14:43:21.365Z,53.80
2018-06-02T14:45:48.848Z,53.70
2018-06-02T14:48:17.123Z,53.80
2018-06-02T14:50:44.603Z,53.80
2018-06-02T14:53:12.851Z,54.00
2018-06-02T14:55:40.413Z,54.00
2018-06-02T14:58:08.009Z,54.00
2018-06-02T15:00:35.499Z,54.00
2018-06-02T15:03:03.041Z,54.00
2018-06-02T15:05:30.593Z,54.00
2018-06-02T15:07:58.080Z,53.90
2018-06-02T15:10:25.704Z,53.90
2018-06-02T15:12:54.028Z,54.30
2018-06-02T15:15:21.504Z,54.20
2018-06-02T15:17:49.003Z,54.20
2018-06-02T15:20:16.521Z,54.20
2018-06-02T15:22:44.829Z,54.30
2018-06-02T15:25:12.498Z,54.20
2018-06-02T15:27:39.969Z,54.20
2018-06-02T15:30:07.528Z,54.70
2018-06-02T15:32:35.856Z,54.00
2018-06-02T15:35:03.350Z,54.00
2018-06-02T15:37:30.895Z,54.00
2018-06-02T15:39:58.385Z,54.10
2018-06-02T15:42:27.380Z,54.00
2018-06-02T15:44:54.889Z,54.00
2018-06-02T15:47:23.141Z,54.00
2018-06-02T15:49:52.132Z,53.90
2018-06-02T15:52:19.714Z,53.80
2018-06-02T15:54:47.307Z,53.90
2018-06-02T15:57:14.778Z,54.00
2018-06-02T15:59:42.453Z,53.90
2018-06-02T16:02:09.864Z,53.90
2018-06-02T16:04:37.340Z,53.90
2018-06-02T16:07:04.929Z,53.90
2018-06-02T16:09:32.414Z,53.80
2018-06-02T16:11:59.949Z,53.60
2018-06-02T16:14:27.446Z,53.70
2018-06-02T16:16:54.924Z,53.60
2018-06-02T16:19:22.446Z,53.50
2018-06-02T16:21:50.795Z,53.40
2018-06-02T16:24:18.265Z,53.40
2018-06-02T16:26:45.809Z,53.40
2018-06-02T16:29:13.333Z,53.40
2018-06-02T16:31:40.791Z,53.20
2018-06-02T16:34:08.273Z,53.30
2018-06-02T16:36:36.534Z,53.10
2018-06-02T16:39:04.066Z,53.10
2018-06-02T16:41:31.584Z,53.00
2018-06-02T16:43:59.076Z,53.10
2018-06-02T16:46:27.420Z,53.30
2018-06-02T16:48:55.072Z,53.20
2018-06-02T16:51:22.656Z,53.20
2018-06-02T16:53:50.242Z,53.10
2018-06-02T16:56:17.805Z,53.20
2018-06-02T16:58:45.376Z,53.20
2018-06-02T17:01:12.857Z,53.10
2018-06-02T17:03:40.349Z,53.30
2018-06-02T17:06:07.893Z,53.20
2018-06-02T17:08:35.487Z,53.20
2018-06-02T17:11:03.118Z,53.10
2018-06-02T17:13:30.607Z,53.10
2018-06-02T17:15:58.108Z,53.00
2018-06-02T17:18:25.589Z,53.00
2018-06-02T17:20:53.117Z,53.10
2018-06-02T17:23:20.749Z,53.10
2018-06-02T17:25:48.217Z,53.00
2018-06-02T17:28:15.713Z,53.10
2018-06-02T17:30:43.195Z,53.10
2018-06-02T17:33:10.801Z,53.10
2018-06-02T17:35:38.279Z,53.00
2018-06-02T17:38:05.776Z,53.00
2018-06-02T17:40:34.022Z,53.20
2018-06-02T17:43:01.591Z,53.10
2018-06-02T17:45:29.097Z,53.00
2018-06-02T17:47:57.441Z,52.90
2018-06-02T17:50:25.010Z,52.90
2018-06-02T17:52:52.484Z,52.90
2018-06-02T17:55:20.001Z,52.90
2018-06-02T17:57:48.270Z,53.00
2018-06-02T18:00:15.756Z,53.00
2018-06-02T18:02:43.248Z,53.10
2018-06-02T18:05:11.624Z,53.10
2018-06-02T18:07:39.088Z,53.10
2018-06-02T18:10:06.601Z,53.00
2018-06-02T18:12:34.861Z,53.00
2018-06-02T18:15:37.328Z,52.90
2018-06-02T18:18:05.421Z,52.80
2018-06-02T18:20:33.756Z,52.80
2018-06-02T18:23:01.947Z,52.90
2018-06-02T18:25:30.273Z,52.90
2018-06-02T18:27:58.520Z,52.90
2018-06-02T18:30:26.693Z,52.90
2018-06-02T18:32:54.754Z,52.80
2018-06-02T18:35:22.871Z,52.90
2018-06-02T18:37:50.955Z,52.80
2018-06-02T18:40:19.053Z,52.90
2018-06-02T18:42:47.157Z,52.80
2018-06-02T18:45:15.241Z,52.80
2018-06-02T18:47:43.333Z,52.80
2018-06-02T18:50:11.423Z,52.70
2018-06-02T18:52:39.540Z,52.80
2018-06-02T18:55:07.612Z,52.70
2018-06-02T18:57:35.793Z,52.70
2018-06-02T19:00:04.017Z,52.70
2018-06-02T19:02:32.126Z,52.70
2018-06-02T19:05:00.237Z,52.70
2018-06-02T19:07:28.402Z,52.70
2018-06-02T19:09:56.648Z,52.70
2018-06-02T19:14:52.609Z,52.70
2018-06-02T19:17:20.688Z,52.80
2018-06-02T19:19:48.861Z,52.90
2018-06-02T19:22:16.940Z,53.00
2018-06-02T19:24:44.997Z,53.00
2018-06-02T19:27:13.100Z,52.90
2018-06-02T19:29:41.201Z,52.90
2018-06-02T19:32:09.281Z,52.90
2018-06-02T19:34:37.361Z,53.00
2018-06-02T19:37:05.441Z,53.10
2018-06-02T19:39:33.545Z,53.00
2018-06-02T19:42:01.666Z,53.00
2018-06-02T19:44:29.794Z,53.00
2018-06-02T19:46:57.939Z,53.00
2018-06-02T19:49:26.025Z,52.90
2018-06-02T19:51:54.108Z,52.90
2018-06-02T19:54:22.192Z,52.90
2018-06-02T19:56:50.719Z,53.00
2018-06-02T19:59:18.792Z,53.00
2018-06-02T20:01:46.916Z,52.90
2018-06-02T20:04:15.010Z,52.90
2018-06-02T20:09:10.954Z,52.90
2018-06-02T20:11:39.042Z,52.90
2018-06-02T20:14:07.152Z,52.90
2018-06-02T20:16:35.224Z,52.90
2018-06-02T20:19:03.292Z,52.90
2018-06-02T20:21:31.415Z,52.90
2018-06-02T20:23:59.513Z,52.90
2018-06-02T20:26:27.609Z,52.90
2018-06-02T20:28:55.723Z,52.90
2018-06-02T20:31:23.814Z,52.90
2018-06-02T20:33:51.889Z,52.90
2018-06-02T20:36:19.961Z,52.90
2018-06-02T20:38:48.040Z,53.00
2018-06-02T20:41:16.189Z,52.90
2018-06-02T20:46:12.190Z,53.00
2018-06-02T20:48:40.353Z,53.00
2018-06-02T20:51:08.490Z,53.00
2018-06-02T20:53:36.609Z,53.00
2018-06-02T20:56:04.780Z,53.00
2018-06-02T20:58:32.849Z,53.00
2018-06-02T21:01:00.944Z,53.00
2018-06-02T21:03:29.082Z,52.90
2018-06-02T21:05:57.235Z,52.90
2018-06-02T21:08:25.447Z,52.90
2018-06-02T21:10:53.500Z,53.10
2018-06-02T21:13:21.573Z,53.10
2018-06-02T21:15:49.712Z,53.00
2018-06-02T21:18:17.840Z,53.10
2018-06-02T21:20:45.967Z,53.10
2018-06-02T21:23:14.070Z,53.10
2018-06-02T21:25:42.141Z,53.10
2018-06-02T21:28:10.210Z,53.10
2018-06-02T21:30:38.457Z,53.10
2018-06-02T21:33:06.661Z,53.10
2018-06-02T21:35:34.841Z,53.10
2018-06-02T21:38:03.032Z,53.20
2018-06-02T21:42:59.002Z,53.10
2018-06-02T21:45:27.073Z,53.10
2018-06-02T21:47:55.173Z,52.60
2018-06-02T21:50:23.249Z,53.10
2018-06-02T21:52:51.373Z,53.10
2018-06-02T21:55:19.545Z,53.10
2018-06-02T21:57:47.667Z,53.10
2018-06-02T22:00:15.768Z,53.10
2018-06-02T22:02:43.845Z,53.10
2018-06-02T22:05:11.942Z,53.20
2018-06-02T22:07:40.064Z,53.10
2018-06-02T22:10:08.137Z,53.10
2018-06-02T22:12:36.267Z,53.10
2018-06-02T22:15:04.376Z,53.50
2018-06-02T22:17:32.513Z,53.10
2018-06-02T22:20:00.642Z,53.10
2018-06-02T22:22:28.753Z,53.10
2018-06-02T22:24:56.880Z,53.10
2018-06-02T22:27:24.955Z,53.10
2018-06-02T22:29:53.044Z,53.10
2018-06-02T22:32:21.120Z,53.10
2018-06-02T22:34:49.277Z,53.00
2018-06-02T22:37:17.357Z,53.10
2018-06-02T22:39:45.442Z,53.10
2018-06-02T22:42:13.535Z,53.00
2018-06-02T22:44:41.607Z,53.00
2018-06-02T22:47:09.741Z,53.00
2018-06-02T22:49:37.826Z,53.00
2018-06-02T22:52:05.910Z,53.00
2018-06-02T22:54:34.349Z,53.00
2018-06-02T22:57:02.433Z,53.10
2018-06-02T22:59:30.783Z,53.00
2018-06-02T23:01:58.973Z,53.00
2018-06-02T23:04:27.354Z,53.00
2018-06-02T23:06:55.440Z,53.00
2018-06-02T23:09:23.518Z,52.90
2018-06-02T23:11:51.606Z,53.00
2018-06-02T23:14:19.686Z,52.90
2018-06-02T23:16:47.788Z,53.00
2018-06-02T23:19:15.888Z,53.00
2018-06-02T23:21:43.974Z,52.90
2018-06-02T23:24:12.285Z,52.90
2018-06-02T23:26:40.368Z,52.90
2018-06-02T23:29:08.444Z,52.90
2018-06-02T23:31:36.531Z,53.00
2018-06-02T23:34:04.604Z,53.00
2018-06-02T23:36:32.697Z,53.00
2018-06-02T23:39:00.816Z,53.00
2018-06-02T23:41:28.926Z,53.00
2018-06-02T23:43:57.053Z,53.00
2018-06-02T23:46:25.132Z,53.00
2018-06-02T23:48:53.217Z,53.00
2018-06-02T23:51:21.321Z,53.00
2018-06-02T23:53:49.396Z,53.00
2018-06-02T23:56:17.581Z,53.00
2018-06-02T23:58:45.653Z,53.00
